Time;durP1;ratioP1;P1;durP2;ratioP2;P2;SDS_P1;SDS_P2;PMS_P1;PMS_P2;Temp;Humidity;BMP_temperature;BMP_pressure;BME280_temperature;BME280_humidity;BME280_pressure;Samples;Min_cycle;Max_cycle;Signal;HPM_P1;HPM_P2
2022/07/28 00:01:02;;;;;;;2.08;1.88;;;;;;;14.17;71.91;101889.22;5070600;28;20032;-64
2022/07/28 00:03:28;;;;;;;2.80;1.52;;;;;;;14.17;71.82;101897.25;5070231;28;20024;-64
2022/07/28 00:05:53;;;;;;;5.72;1.52;;;;;;;14.13;72.25;101894.16;5069809;28;20028;-64
2022/07/28 00:08:18;;;;;;;3.85;2.67;;;;;;;14.15;72.57;101899.34;5070406;28;20994;-64
2022/07/28 00:10:44;;;;;;;5.95;1.55;;;;;;;14.10;72.23;101896.41;5070566;28;20514;-64
2022/07/28 00:13:09;;;;;;;2.25;2.00;;;;;;;14.11;72.74;101895.38;5069025;28;20510;-64
2022/07/28 00:15:35;;;;;;;4.60;1.40;;;;;;;14.09;72.47;101897.41;5070291;28;20388;-64
2022/07/28 00:18:00;;;;;;;4.78;1.98;;;;;;;14.05;72.92;101890.78;5070287;28;20380;-64
2022/07/28 00:20:26;;;;;;;3.20;1.67;;;;;;;14.00;73.08;101883.31;5069815;28;20157;-64
2022/07/28 00:22:52;;;;;;;3.20;1.65;;;;;;;13.97;72.79;101881.03;5070041;28;20063;-63
2022/07/28 00:25:18;;;;;;;4.30;2.33;;;;;;;13.97;73.07;101886.41;5070140;28;20074;-64
2022/07/28 00:27:43;;;;;;;6.05;1.83;;;;;;;13.92;73.24;101884.28;5069658;28;20063;-64
2022/07/28 00:30:09;;;;;;;3.33;2.00;;;;;;;13.89;73.31;101883.84;5069495;28;20499;-64
2022/07/28 00:32:34;;;;;;;4.28;2.15;;;;;;;13.88;73.18;101888.38;5069957;28;20024;-64
2022/07/28 00:35:00;;;;;;;10.93;1.63;;;;;;;13.83;73.64;101882.75;5070074;28;20036;-64
2022/07/28 00:37:26;;;;;;;5.07;1.70;;;;;;;13.81;73.86;101890.19;5070013;28;20044;-64
2022/07/28 00:39:51;;;;;;;8.15;2.13;;;;;;;13.76;73.34;101888.06;5069989;28;20042;-64
2022/07/28 00:42:20;;;;;;;3.60;1.52;;;;;;;13.73;73.62;101884.94;5069939;28;20040;-64
2022/07/28 00:44:46;;;;;;;4.35;2.00;;;;;;;13.69;73.91;101884.50;5069796;28;20039;-64
2022/07/28 00:47:11;;;;;;;3.63;1.38;;;;;;;13.65;74.20;101883.22;5069065;28;20028;-64
2022/07/28 00:49:37;;;;;;;2.35;1.90;;;;;;;13.61;74.44;101879.25;5069614;28;20594;-64
2022/07/28 00:52:04;;;;;;;2.95;1.67;;;;;;;13.57;74.64;101873.47;5069673;28;20032;-64
2022/07/28 00:54:31;;;;;;;1.98;1.50;;;;;;;13.50;74.58;101869.06;5069085;28;20120;-64
2022/07/28 00:56:57;;;;;;;6.32;2.75;;;;;;;13.50;74.56;101874.41;5069009;28;20522;-64
2022/07/28 00:59:22;;;;;;;5.43;1.75;;;;;;;13.47;75.11;101882.84;5069077;28;20049;-64
2022/07/28 01:01:48;;;;;;;4.57;1.73;;;;;;;13.44;74.93;101886.72;5069646;28;20039;-64
2022/07/28 01:04:13;;;;;;;3.47;1.42;;;;;;;13.42;74.42;101880.72;5069547;28;20078;-64
2022/07/28 01:06:57;;;;;;;7.35;2.63;;;;;;;13.38;75.08;101880.25;5069376;28;20040;-64
2022/07/28 01:09:43;;;;;;;2.70;1.50;;;;;;;13.31;75.64;101865.97;5069361;28;20828;-64
2022/07/28 01:12:15;;;;;;;3.95;2.20;;;;;;;13.26;75.69;101865.72;5069338;28;20628;-64
2022/07/28 01:14:48;;;;;;;9.27;2.67;;;;;;;13.22;75.37;101860.88;5069410;28;20024;-64
2022/07/28 01:17:16;;;;;;;2.78;1.60;;;;;;;13.19;75.35;101867.44;5069029;28;20021;-64
2022/07/28 01:20:04;;;;;;;2.97;2.67;;;;;;;13.15;75.77;101861.66;5069297;28;20066;-64
2022/07/28 01:22:36;;;;;;;4.35;1.92;;;;;;;13.11;75.80;101864.88;5068809;28;20039;-64
2022/07/28 01:25:17;;;;;;;4.72;2.40;;;;;;;13.09;75.75;101864.25;5068846;28;20074;-63
2022/07/28 01:27:57;;;;;;;4.47;1.75;;;;;;;13.05;76.19;101863.78;5068291;28;20487;-64
2022/07/28 01:30:30;;;;;;;4.80;2.08;;;;;;;12.98;76.80;101860.19;5068462;28;20039;-64
2022/07/28 01:33:31;;;;;;;3.25;2.10;;;;;;;12.93;76.69;101866.09;5069041;28;20115;-64
2022/07/28 01:36:09;;;;;;;4.22;1.60;;;;;;;12.87;77.32;101864.19;5069095;28;20024;-64
2022/07/28 01:38:37;;;;;;;4.90;2.00;;;;;;;12.82;77.81;101863.09;5069154;28;20390;-64
2022/07/28 01:41:07;;;;;;;3.35;1.85;;;;;;;12.77;77.35;101855.63;5068851;28;20020;-64
2022/07/28 01:43:36;;;;;;;3.25;1.88;;;;;;;12.76;77.45;101853.13;5069090;28;20444;-64
2022/07/28 01:46:02;;;;;;;4.40;1.80;;;;;;;12.74;77.76;101847.97;5069072;28;20028;-64
2022/07/28 01:48:30;;;;;;;6.75;2.28;;;;;;;12.71;77.35;101856.38;5068476;28;20054;-64
2022/07/28 01:50:56;;;;;;;2.53;1.85;;;;;;;12.71;77.52;101859.03;5068954;28;20025;-64
2022/07/28 01:53:24;;;;;;;4.47;2.03;;;;;;;12.72;77.75;101853.50;5068946;28;20082;-64
2022/07/28 01:55:51;;;;;;;3.35;1.90;;;;;;;12.72;78.32;101850.81;5069049;28;20504;-64
2022/07/28 01:58:19;;;;;;;8.10;2.75;;;;;;;12.77;78.24;101852.13;5069011;28;20020;-64
2022/07/28 02:00:48;;;;;;;4.90;2.70;;;;;;;12.78;77.87;101848.41;5068980;28;20501;-64
2022/07/28 02:03:15;;;;;;;3.53;1.98;;;;;;;12.75;77.77;101838.06;5068881;28;20025;-64
2022/07/28 02:05:42;;;;;;;5.57;2.20;;;;;;;12.68;78.10;101844.19;5067580;28;20476;-64
2022/07/28 02:08:10;;;;;;;5.93;2.42;;;;;;;12.62;78.10;101842.25;5068811;28;20078;-64
2022/07/28 02:10:40;;;;;;;3.75;2.17;;;;;;;12.53;78.92;101831.84;5070545;28;20029;-64
2022/07/28 02:13:06;;;;;;;3.63;2.10;;;;;;;12.48;79.04;101843.09;5072700;28;20024;-64
2022/07/28 02:15:33;;;;;;;3.90;2.20;;;;;;;12.45;79.01;101838.09;5072737;28;20103;-64
2022/07/28 02:17:59;;;;;;;9.65;2.53;;;;;;;12.44;79.30;101839.09;5072647;28;20028;-64
2022/07/28 02:20:25;;;;;;;5.50;2.53;;;;;;;12.40;79.03;101840.50;5072576;28;20054;-64
2022/07/28 02:22:52;;;;;;;7.10;2.40;;;;;;;12.37;79.45;101830.19;5072578;28;20041;-64
2022/07/28 02:25:19;;;;;;;2.03;1.75;;;;;;;12.31;79.54;101825.53;5071852;28;20120;-64
2022/07/28 02:28:12;;;;;;;2.45;1.60;;;;;;;12.32;79.02;101829.91;5072061;28;20136;-64
2022/07/28 02:30:46;;;;;;;3.80;2.03;;;;;;;12.29;79.71;101823.06;5068958;28;20060;-64
2022/07/28 02:33:19;;;;;;;5.75;2.63;;;;;;;12.32;79.31;101824.56;5071403;28;20028;-64
2022/07/28 02:35:48;;;;;;;4.90;2.28;;;;;;;12.31;79.61;101820.19;5072292;28;20071;-64
2022/07/28 02:38:20;;;;;;;6.22;2.35;;;;;;;12.32;79.40;101835.25;5072272;28;20371;-64
2022/07/28 02:40:48;;;;;;;8.02;4.22;;;;;;;12.30;79.21;101829.25;5072156;28;20074;-64
2022/07/28 02:43:19;;;;;;;8.88;3.50;;;;;;;12.24;79.06;101820.13;5072040;28;20086;-64
2022/07/28 02:45:48;;;;;;;3.38;1.77;;;;;;;12.24;78.76;101831.63;5072049;28;20036;-64
2022/07/28 02:48:17;;;;;;;3.80;2.15;;;;;;;12.24;79.28;101826.28;5072059;28;20032;-64
2022/07/28 02:50:45;;;;;;;3.58;1.92;;;;;;;12.19;79.35;101819.84;5071289;28;20033;-64
2022/07/28 02:53:13;;;;;;;4.35;2.00;;;;;;;12.22;79.50;101830.97;5071990;28;20058;-64
2022/07/28 02:55:39;;;;;;;3.42;2.20;;;;;;;12.10;79.24;101810.22;5071800;28;20043;-64
2022/07/28 02:58:07;;;;;;;8.65;2.88;;;;;;;12.17;78.82;101824.53;5071780;28;20103;-64
2022/07/28 03:00:34;;;;;;;6.43;2.92;;;;;;;12.15;79.05;101816.69;5071719;28;20441;-64
2022/07/28 03:03:00;;;;;;;5.57;1.75;;;;;;;12.19;78.83;101834.03;5071854;28;20036;-64
2022/07/28 03:05:27;;;;;;;3.42;2.38;;;;;;;12.20;79.20;101824.97;5071770;28;20039;-64
2022/07/28 03:07:53;;;;;;;5.63;2.22;;;;;;;12.19;79.02;101823.34;5071699;28;20422;-64
2022/07/28 03:10:24;;;;;;;1.63;1.50;;;;;;;12.18;79.11;101823.50;5071656;28;20147;-64
2022/07/28 03:12:51;;;;;;;5.43;2.30;;;;;;;12.18;78.64;101832.38;5071665;28;20036;-64
2022/07/28 03:15:16;;;;;;;4.10;2.33;;;;;;;12.20;78.34;101821.47;5071666;28;20108;-64
2022/07/28 03:17:42;;;;;;;4.18;2.58;;;;;;;12.17;78.18;101825.34;5071634;28;20124;-64
2022/07/28 03:20:08;;;;;;;3.50;2.05;;;;;;;12.17;78.37;101824.53;5071532;28;20066;-64
2022/07/28 03:22:34;;;;;;;5.05;2.45;;;;;;;12.14;78.71;101825.72;5071197;28;20455;-64
2022/07/28 03:25:01;;;;;;;7.25;2.28;;;;;;;12.12;79.06;101824.25;5071275;28;20052;-70
2022/07/28 03:27:33;;;;;;;2.22;2.00;;;;;;;12.09;78.94;101832.63;5070419;28;20487;-71
2022/07/28 03:30:10;;;;;;;5.38;3.20;;;;;;;12.04;79.12;101833.19;5071322;28;20452;-71
2022/07/28 03:32:42;;;;;;;7.75;2.60;;;;;;;12.04;79.25;101841.19;5071144;28;20020;-71
2022/07/28 03:35:07;;;;;;;;;;;;;;;12.05;78.44;101842.84;5071140;28;20025;-71
2022/07/28 03:37:57;;;;;;;3.90;1.83;;;;;;;12.03;79.38;101844.91;5070801;28;19915;-71
2022/07/28 03:40:27;;;;;;;6.13;3.00;;;;;;;11.93;79.24;101847.81;5071086;28;20483;-70
2022/07/28 03:42:55;;;;;;;5.57;2.33;;;;;;;11.95;80.16;101850.31;5071042;28;20979;-71
2022/07/28 03:45:20;;;;;;;3.55;2.00;;;;;;;11.88;79.89;101844.84;5071045;28;20089;-71
2022/07/28 03:47:55;;;;;;;7.00;2.97;;;;;;;11.88;80.10;101841.34;5070892;28;20037;-71
2022/07/28 03:50:24;;;;;;;4.07;2.60;;;;;;;11.87;79.69;101842.34;5070972;28;20032;-71
2022/07/28 03:52:50;;;;;;;4.82;2.33;;;;;;;11.86;80.39;101844.19;5070218;28;20043;-70
2022/07/28 03:55:16;;;;;;;2.65;2.03;;;;;;;11.84;80.36;101840.84;5070718;28;20029;-71
2022/07/28 03:57:41;;;;;;;5.28;2.70;;;;;;;11.78;80.82;101841.56;5070732;28;20036;-70
2022/07/28 04:00:08;;;;;;;4.05;2.22;;;;;;;11.78;80.05;101852.25;5070427;28;20032;-71
2022/07/28 04:02:33;;;;;;;4.72;2.03;;;;;;;11.77;80.61;101850.59;5070398;28;20032;-71
2022/07/28 04:04:59;;;;;;;4.28;2.38;;;;;;;11.74;80.77;101837.63;5070688;28;20498;-71
2022/07/28 04:07:24;;;;;;;18.25;2.53;;;;;;;11.67;81.11;101837.47;5070430;28;20028;-71
2022/07/28 04:09:49;;;;;;;8.13;2.63;;;;;;;11.67;81.17;101842.00;5069023;28;20032;-71
2022/07/28 04:12:15;;;;;;;7.93;2.63;;;;;;;11.63;81.38;101837.03;5070351;28;20035;-71
2022/07/28 04:14:40;;;;;;;3.55;2.10;;;;;;;11.63;81.51;101836.16;5070231;28;20028;-71
2022/07/28 04:17:05;;;;;;;4.10;2.25;;;;;;;11.62;81.87;101839.88;5070306;28;20064;-71
2022/07/28 04:19:31;;;;;;;7.10;2.40;;;;;;;11.62;81.52;101837.19;5070354;28;20063;-71
2022/07/28 04:21:56;;;;;;;3.63;2.10;;;;;;;11.62;81.90;101838.00;5070275;28;20036;-71
2022/07/28 04:24:21;;;;;;;3.33;2.10;;;;;;;11.62;82.04;101835.34;5070158;28;20043;-71
2022/07/28 04:26:47;;;;;;;6.90;2.35;;;;;;;11.65;81.29;101830.66;5070024;28;20048;-69
2022/07/28 04:29:12;;;;;;;5.60;2.17;;;;;;;11.66;81.83;101826.97;5069080;28;20048;-71
2022/07/28 04:31:38;;;;;;;4.25;2.65;;;;;;;11.67;81.79;101825.97;5068315;28;20449;-71
2022/07/28 04:34:03;;;;;;;6.00;2.33;;;;;;;11.70;81.92;101828.28;5069210;28;20040;-71
2022/07/28 04:36:29;;;;;;;4.32;2.30;;;;;;;11.73;81.42;101825.25;5069171;28;20048;-71
2022/07/28 04:38:56;;;;;;;3.05;2.60;;;;;;;11.75;81.76;101828.56;5069381;28;20063;-71
2022/07/28 04:41:21;;;;;;;21.38;15.35;;;;;;;11.78;81.83;101821.00;5069802;28;20055;-71
2022/07/28 04:43:47;;;;;;;4.47;2.78;;;;;;;11.83;81.82;101821.31;5069875;28;20024;-71
2022/07/28 04:46:12;;;;;;;3.13;2.05;;;;;;;11.88;81.71;101825.31;5069736;28;20024;-71
2022/07/28 04:48:37;;;;;;;6.78;3.50;;;;;;;11.93;81.44;101814.91;5069615;28;20033;-71
2022/07/28 04:51:03;;;;;;;4.28;2.47;;;;;;;12.01;80.93;101834.38;5069726;28;20438;-71
2022/07/28 04:53:29;;;;;;;4.32;2.10;;;;;;;12.05;80.74;101821.47;5069218;28;20028;-71
2022/07/28 04:55:56;;;;;;;3.30;1.88;;;;;;;12.08;80.75;101823.78;5069345;28;20111;-71
2022/07/28 04:58:22;;;;;;;10.05;3.33;;;;;;;12.15;80.24;101829.22;5069340;28;20050;-71
2022/07/28 05:00:47;;;;;;;3.60;2.13;;;;;;;12.20;80.34;101827.66;5069450;28;20112;-71
2022/07/28 05:03:13;;;;;;;4.70;2.22;;;;;;;12.27;79.73;101825.91;5069508;28;20111;-71
2022/07/28 05:05:38;;;;;;;4.22;2.35;;;;;;;12.31;79.98;101823.69;5069445;28;20034;-70
2022/07/28 05:08:04;;;;;;;3.40;2.70;;;;;;;12.35;79.60;101819.66;5069438;28;20559;-71
2022/07/28 05:10:29;;;;;;;4.88;2.03;;;;;;;12.40;79.71;101819.09;5069451;28;20447;-70
2022/07/28 05:12:55;;;;;;;6.25;2.53;;;;;;;12.39;79.84;101820.09;5069492;28;20067;-71
2022/07/28 05:15:20;;;;;;;8.65;2.65;;;;;;;12.38;79.60;101824.63;5069293;28;20040;-71
2022/07/28 05:17:46;;;;;;;8.95;3.03;;;;;;;12.43;79.79;101826.75;5069231;28;20021;-71
2022/07/28 05:20:12;;;;;;;9.27;3.25;;;;;;;12.49;79.55;101836.72;5068209;28;20480;-71
2022/07/28 05:22:46;;;;;;;5.32;2.40;;;;;;;12.50;79.58;101833.03;5069373;28;20119;-71
2022/07/28 05:25:13;;;;;;;5.43;2.85;;;;;;;12.49;79.66;101826.00;5068778;28;20021;-71
2022/07/28 05:27:38;;;;;;;5.07;2.28;;;;;;;12.47;79.97;101823.53;5068158;28;20051;-71
2022/07/28 05:30:04;;;;;;;5.38;2.40;;;;;;;12.53;79.88;101829.16;5067559;28;20032;-71
2022/07/28 05:32:29;;;;;;;7.30;2.40;;;;;;;12.60;79.59;101825.56;5068761;28;20040;-71
2022/07/28 05:34:55;;;;;;;8.05;2.20;;;;;;;12.79;79.49;101826.81;5069195;28;20616;-72
2022/07/28 05:37:20;;;;;;;9.20;3.17;;;;;;;13.26;77.84;101825.53;5069207;28;20539;-71
2022/07/28 05:39:46;;;;;;;2.97;1.95;;;;;;;13.49;76.25;101825.34;5068369;28;20431;-71
2022/07/28 05:42:11;;;;;;;4.25;2.67;;;;;;;13.51;77.03;101823.28;5069113;28;20060;-71
2022/07/28 05:44:36;;;;;;;9.05;3.17;;;;;;;13.43;75.91;101818.06;5070744;28;20107;-71
2022/07/28 05:47:02;;;;;;;5.35;2.88;;;;;;;13.50;76.45;101836.88;5073324;28;20070;-71
2022/07/28 05:49:27;;;;;;;4.95;2.10;;;;;;;13.48;76.57;101822.84;5073196;28;20068;-71
2022/07/28 05:51:52;;;;;;;6.32;3.05;;;;;;;13.49;75.98;101829.84;5073303;28;20039;-71
2022/07/28 05:54:18;;;;;;;4.63;2.13;;;;;;;13.50;76.51;101843.06;5073053;28;20028;-71
2022/07/28 05:56:43;;;;;;;3.75;2.35;;;;;;;13.51;75.54;101835.84;5070804;28;20033;-71
2022/07/28 05:59:09;;;;;;;3.08;1.98;;;;;;;13.48;76.12;101833.56;5072882;28;20028;-71
2022/07/28 06:01:37;;;;;;;5.65;2.47;;;;;;;13.47;76.13;101831.91;5072867;28;20032;-71
2022/07/28 06:04:03;;;;;;;7.57;2.60;;;;;;;13.57;75.86;101838.63;5073046;28;20052;-71
2022/07/28 06:06:28;;;;;;;9.95;2.38;;;;;;;13.64;74.56;101829.78;5072964;28;20067;-71
2022/07/28 06:08:53;;;;;;;7.22;2.67;;;;;;;13.81;74.87;101844.59;5072544;28;20020;-70
2022/07/28 06:11:19;;;;;;;4.93;2.30;;;;;;;13.86;75.71;101836.81;5072589;28;20555;-70
2022/07/28 06:13:45;;;;;;;5.55;2.08;;;;;;;13.90;73.93;101835.38;5072589;28;20115;-71
2022/07/28 06:16:11;;;;;;;9.18;2.67;;;;;;;13.89;74.43;101828.34;5071420;28;20039;-71
2022/07/28 06:18:36;;;;;;;5.55;2.17;;;;;;;13.95;73.73;101829.44;5072183;28;20032;-70
2022/07/28 06:21:02;;;;;;;6.88;3.60;;;;;;;13.96;72.68;101837.28;5072341;28;20028;-71
2022/07/28 06:23:27;;;;;;;3.17;1.88;;;;;;;13.95;72.86;101838.31;5072537;28;20071;-71
2022/07/28 06:25:53;;;;;;;9.90;2.40;;;;;;;14.01;73.41;101836.69;5072562;28;20035;-71
2022/07/28 06:28:19;;;;;;;3.88;2.20;;;;;;;14.08;72.69;101834.88;5072308;28;20047;-71
2022/07/28 06:30:48;;;;;;;8.50;1.98;;;;;;;14.13;72.53;101840.50;5072029;28;20024;-71
2022/07/28 06:33:14;;;;;;;5.78;1.85;;;;;;;14.17;71.92;101836.41;5071558;28;20035;-71
2022/07/28 06:35:40;;;;;;;5.55;1.77;;;;;;;14.18;72.30;101842.59;5072240;28;20113;-70
2022/07/28 06:38:05;;;;;;;6.90;2.03;;;;;;;14.19;71.49;101839.69;5072174;28;20056;-68
2022/07/28 06:40:31;;;;;;;8.75;1.98;;;;;;;14.24;71.80;101837.25;5071844;28;20371;-68
2022/07/28 06:42:56;;;;;;;9.93;3.45;;;;;;;14.29;72.08;101841.22;5071944;28;20025;-68
2022/07/28 06:45:22;;;;;;;3.65;2.00;;;;;;;14.30;70.87;101830.28;5072062;28;20028;-68
2022/07/28 06:47:48;;;;;;;6.07;2.08;;;;;;;14.29;71.79;101823.25;5071851;28;20111;-68
2022/07/28 06:50:13;;;;;;;2.65;1.80;;;;;;;14.38;72.17;101830.13;5071979;28;20051;-68
2022/07/28 06:52:39;;;;;;;5.15;2.45;;;;;;;14.40;71.13;101828.06;5071988;28;20079;-66
2022/07/28 06:55:05;;;;;;;3.28;1.98;;;;;;;14.42;70.64;101827.88;5071864;28;20483;-68
2022/07/28 06:57:32;;;;;;;7.50;1.98;;;;;;;14.47;71.08;101828.13;5070890;28;20040;-68
2022/07/28 06:59:58;;;;;;;3.95;2.13;;;;;;;14.46;70.77;101818.38;5071708;28;20407;-68
2022/07/28 07:02:24;;;;;;;8.23;1.90;;;;;;;14.55;70.88;101821.78;5071893;28;20124;-68
2022/07/28 07:04:50;;;;;;;7.65;1.90;;;;;;;14.60;70.83;101819.34;5071851;28;20111;-68
2022/07/28 07:07:16;;;;;;;6.22;2.88;;;;;;;14.75;70.63;101829.91;5071790;28;20021;-69
2022/07/28 07:09:41;;;;;;;4.70;1.48;;;;;;;14.89;69.50;101829.78;5071702;28;20600;-68
2022/07/28 07:12:07;;;;;;;7.28;2.70;;;;;;;15.04;69.16;101837.69;5071344;28;20043;-67
2022/07/28 07:14:32;;;;;;;3.47;2.00;;;;;;;15.08;68.71;101838.09;5071237;28;20379;-70
2022/07/28 07:16:58;;;;;;;5.95;1.98;;;;;;;15.11;69.31;101826.94;5071304;28;20028;-69
2022/07/28 07:19:23;;;;;;;6.53;1.80;;;;;;;15.18;68.62;101824.28;5071563;28;20494;-70
2022/07/28 07:21:48;;;;;;;10.05;1.70;;;;;;;15.34;68.84;101831.97;5071425;28;20546;-70
2022/07/28 07:24:14;;;;;;;3.22;1.95;;;;;;;15.46;67.82;101829.50;5071513;28;20036;-70
2022/07/28 07:26:40;;;;;;;3.08;1.70;;;;;;;15.54;67.25;101823.94;5071105;28;20032;-69
2022/07/28 07:29:06;;;;;;;6.10;1.80;;;;;;;15.65;67.04;101830.56;5071038;28;20504;-70
2022/07/28 07:31:32;;;;;;;2.13;1.40;;;;;;;15.73;66.52;101835.75;5071271;28;20158;-69
2022/07/28 07:33:58;;;;;;;6.57;1.92;;;;;;;15.80;65.59;101833.06;5068487;28;20113;-70
2022/07/28 07:36:23;;;;;;;10.93;2.47;;;;;;;15.96;65.67;101835.34;5066307;28;20469;-70
2022/07/28 07:38:49;;;;;;;5.65;2.75;;;;;;;16.07;64.62;101841.97;5067257;28;20169;-75
2022/07/28 07:41:14;;;;;;;2.78;1.30;;;;;;;16.03;64.39;101827.25;5066956;28;20082;-73
2022/07/28 07:43:40;;;;;;;2.90;1.35;;;;;;;16.08;63.88;101824.75;5066908;28;20126;-74
2022/07/28 07:46:06;;;;;;;3.67;1.23;;;;;;;16.23;65.14;101832.63;5065241;28;20108;-73
2022/07/28 07:48:31;;;;;;;4.93;1.52;;;;;;;16.35;64.28;101830.94;5066309;28;20055;-72
2022/07/28 07:50:57;;;;;;;2.35;1.67;;;;;;;16.38;63.79;101825.94;5070014;28;20029;-67
2022/07/28 07:53:23;;;;;;;6.05;1.65;;;;;;;16.43;63.94;101822.63;5070756;28;20024;-68
2022/07/28 07:55:49;;;;;;;4.85;2.00;;;;;;;16.43;63.32;101817.25;5070806;28;20033;-68
2022/07/28 07:58:14;;;;;;;4.72;1.60;;;;;;;16.46;64.61;101810.63;5071035;28;20435;-68
2022/07/28 08:00:40;;;;;;;3.40;1.70;;;;;;;16.55;64.03;101820.09;5070793;28;20067;-68
2022/07/28 08:03:05;;;;;;;9.43;1.42;;;;;;;16.59;63.47;101813.25;5070746;28;20115;-68
2022/07/28 08:05:31;;;;;;;3.03;1.92;;;;;;;16.59;61.86;101807.88;5070596;28;20111;-68
2022/07/28 08:07:56;;;;;;;4.07;2.15;;;;;;;16.67;62.59;101821.09;5069498;28;20434;-68
2022/07/28 08:10:22;;;;;;;2.58;1.63;;;;;;;16.77;62.28;101816.13;5070627;28;20079;-68
2022/07/28 08:12:47;;;;;;;3.72;1.40;;;;;;;16.86;62.33;101811.28;5070516;28;20032;-68
2022/07/28 08:15:13;;;;;;;1.60;1.40;;;;;;;17.01;61.86;101814.53;5070515;28;20114;-68
2022/07/28 08:17:38;;;;;;;4.15;1.20;;;;;;;17.90;59.37;101801.88;5070436;28;20032;-68
2022/07/28 08:20:04;;;;;;;7.75;1.38;;;;;;;20.01;53.05;101809.22;5070370;28;20036;-69
2022/07/28 08:22:29;;;;;;;2.65;1.05;;;;;;;21.82;48.80;101799.69;5070348;28;20035;-68
2022/07/28 08:24:55;;;;;;;5.90;1.70;;;;;;;23.54;44.49;101801.13;5070362;28;20028;-68
2022/07/28 08:27:20;;;;;;;3.70;1.50;;;;;;;24.35;41.29;101799.22;5070108;28;20127;-68
2022/07/28 08:29:46;;;;;;;2.95;1.30;;;;;;;24.99;39.50;101798.06;5070027;28;20127;-68
2022/07/28 08:32:11;;;;;;;2.67;1.40;;;;;;;25.30;37.64;101799.75;5070144;28;20078;-68
2022/07/28 08:34:37;;;;;;;4.70;1.35;;;;;;;25.86;38.36;101801.66;5070064;28;20038;-69
2022/07/28 08:37:04;;;;;;;2.53;1.30;;;;;;;26.33;36.71;101799.59;5068412;28;20479;-68
2022/07/28 08:39:34;;;;;;;2.42;1.23;;;;;;;26.21;36.85;101808.13;5069757;28;20043;-68
2022/07/28 08:42:10;;;;;;;3.70;1.15;;;;;;;26.51;37.65;101798.16;5069644;28;20091;-68
2022/07/28 08:45:02;;;;;;;6.15;1.90;;;;;;;26.80;38.18;101806.50;5069664;28;20407;-68
2022/07/28 08:47:30;;;;;;;;;;;;;;;27.17;39.33;101800.56;5070234;28;20016;-68
2022/07/28 08:49:58;;;;;;;4.22;1.10;;;;;;;27.57;34.22;101806.78;5069690;28;19999;-68
2022/07/28 08:52:27;;;;;;;5.47;1.80;;;;;;;27.61;33.44;101812.50;5069856;28;20483;-68
2022/07/28 08:54:54;;;;;;;2.50;1.13;;;;;;;27.82;32.98;101804.91;5069684;28;20024;-68
2022/07/28 08:57:25;;;;;;;6.28;1.92;;;;;;;28.30;33.16;101804.94;5069721;28;20047;-69
2022/07/28 08:59:51;;;;;;;4.13;1.27;;;;;;;28.40;32.91;101788.31;5069198;28;20120;-68
2022/07/28 09:02:17;;;;;;;5.05;1.05;;;;;;;28.05;32.21;101798.63;5069365;28;20199;-68
2022/07/28 09:04:45;;;;;;;2.20;1.08;;;;;;;25.98;35.56;101795.88;5069259;28;20028;-68
2022/07/28 09:07:11;;;;;;;2.58;1.27;;;;;;;23.90;38.46;101795.97;5069258;28;20032;-69
2022/07/28 09:09:38;;;;;;;2.47;1.20;;;;;;;22.16;43.75;101793.34;5069391;28;20029;-69
2022/07/28 09:12:06;;;;;;;4.28;1.33;;;;;;;21.01;45.51;101789.09;5069492;28;20032;-70
2022/07/28 09:14:32;;;;;;;3.42;1.42;;;;;;;20.49;47.69;101797.28;5069397;28;20032;-73
2022/07/28 09:17:03;;;;;;;5.72;1.50;;;;;;;20.09;49.17;101797.19;5068165;28;20123;-73
2022/07/28 09:19:28;;;;;;;5.60;1.63;;;;;;;19.85;49.72;101797.22;5069079;28;20384;-71
2022/07/28 09:21:55;;;;;;;4.97;1.38;;;;;;;19.67;50.23;101792.72;5069327;28;20040;-73
2022/07/28 09:24:41;;;;;;;6.30;1.85;;;;;;;19.57;50.54;101783.50;5069276;28;20735;-70
2022/07/28 09:27:08;;;;;;;6.68;1.48;;;;;;;19.41;50.66;101788.56;5069092;28;20122;-72
2022/07/28 09:29:37;;;;;;;6.70;1.73;;;;;;;19.45;52.45;101778.91;5069112;28;20080;-72
2022/07/28 09:32:03;;;;;;;4.88;1.48;;;;;;;19.51;51.29;101781.75;5069233;28;20124;-71
2022/07/28 09:34:44;;;;;;;12.38;2.17;;;;;;;19.49;51.02;101773.84;5069181;28;20039;-71
2022/07/28 09:37:26;;;;;;;2.70;1.27;;;;;;;19.44;51.32;101765.63;5069073;28;20016;-71
2022/07/28 09:39:56;;;;;;;4.90;3.08;;;;;;;19.44;51.33;101771.03;5068742;28;20039;-71
2022/07/28 09:42:22;;;;;;;6.30;2.90;;;;;;;19.35;50.89;101757.03;5069217;28;20396;-71
2022/07/28 09:45:07;;;;;;;5.70;1.48;;;;;;;19.37;52.33;101760.31;5068822;28;20504;-71
2022/07/28 09:47:33;;;;;;;6.35;1.70;;;;;;;19.43;51.47;101753.97;5069074;28;20029;-71
2022/07/28 09:50:00;;;;;;;4.00;1.42;;;;;;;19.49;51.05;101750.34;5069175;28;20029;-71
2022/07/28 09:52:31;;;;;;;4.78;1.20;;;;;;;19.64;52.92;101740.94;5067593;28;20024;-72
2022/07/28 09:55:08;;;;;;;3.42;1.60;;;;;;;19.77;52.43;101753.44;5069257;28;20494;-70
2022/07/28 09:57:36;;;;;;;2.88;1.10;;;;;;;19.82;50.28;101751.66;5068732;28;20024;-71
2022/07/28 10:00:10;;;;;;;3.58;1.33;;;;;;;19.83;50.14;101733.53;5069024;28;20040;-72
2022/07/28 10:02:37;;;;;;;6.97;1.10;;;;;;;20.00;51.74;101739.88;5068614;28;20056;-72
2022/07/28 10:05:03;;;;;;;7.78;1.65;;;;;;;19.98;50.03;101736.59;5068817;28;20036;-72
2022/07/28 10:07:29;;;;;;;7.55;1.85;;;;;;;19.78;49.31;101728.84;5068882;28;20074;-72
2022/07/28 10:10:01;;;;;;;2.58;1.20;;;;;;;19.80;49.55;101729.41;5068583;28;20406;-71
2022/07/28 10:12:29;;;;;;;5.53;1.60;;;;;;;19.85;49.94;101729.53;5068451;28;20103;-71
2022/07/28 10:14:58;;;;;;;3.65;1.17;;;;;;;19.78;50.15;101744.25;5068932;28;20048;-71
2022/07/28 10:17:32;;;;;;;3.10;1.63;;;;;;;19.73;50.30;101742.28;5068850;28;20103;-70
2022/07/28 10:19:59;;;;;;;3.35;1.52;;;;;;;19.61;49.08;101736.00;5068921;28;20480;-71
2022/07/28 10:22:32;;;;;;;4.15;1.88;;;;;;;19.71;49.87;101736.25;5068804;28;20032;-72
2022/07/28 10:25:00;;;;;;;2.55;1.75;;;;;;;19.85;50.20;101729.53;5068801;28;20051;-72
2022/07/28 10:27:27;;;;;;;3.72;1.40;;;;;;;20.03;50.38;101725.03;5068680;28;20028;-71
2022/07/28 10:29:58;;;;;;;1.55;1.17;;;;;;;20.10;47.79;101731.16;5068511;28;20037;-71
2022/07/28 10:32:24;;;;;;;3.53;1.30;;;;;;;20.11;49.05;101732.78;5071454;28;20032;-71
2022/07/28 10:34:58;;;;;;;3.90;2.03;;;;;;;20.20;48.43;101731.38;5072459;28;20522;-71
2022/07/28 10:37:27;;;;;;;4.75;0.90;;;;;;;20.26;48.71;101725.00;5072209;28;20047;-71
2022/07/28 10:40:09;;;;;;;5.75;1.75;;;;;;;20.31;49.36;101721.56;5072575;28;20123;-72
2022/07/28 10:42:35;;;;;;;4.45;1.33;;;;;;;20.40;47.85;101720.09;5071981;28;20145;-71
2022/07/28 10:45:02;;;;;;;4.28;1.20;;;;;;;20.48;48.46;101717.00;5072210;28;20470;-71
2022/07/28 10:47:28;;;;;;;3.45;1.08;;;;;;;20.49;47.99;101718.69;5071234;28;20484;-71
2022/07/28 10:49:54;;;;;;;4.28;1.20;;;;;;;20.42;47.89;101731.53;5071541;28;20032;-71
2022/07/28 10:52:21;;;;;;;3.65;1.30;;;;;;;20.32;48.07;101717.78;5071972;28;20032;-71
2022/07/28 10:55:05;;;;;;;1.58;1.13;;;;;;;20.46;47.75;101715.59;5071909;28;20042;-71
2022/07/28 10:57:32;;;;;;;1.40;1.02;;;;;;;20.60;48.71;101716.19;5071885;28;20074;-71
2022/07/28 11:00:08;;;;;;;2.92;1.15;;;;;;;20.77;46.77;101720.56;5070389;28;20396;-72
2022/07/28 11:02:45;;;;;;;2.35;1.40;;;;;;;20.85;46.80;101715.81;5070393;28;20498;-71
2022/07/28 11:05:33;;;;;;;3.78;1.45;;;;;;;20.83;47.04;101713.38;5071355;28;21053;-70
2022/07/28 11:08:03;;;;;;;5.82;1.20;;;;;;;20.79;45.73;101712.19;5071669;28;20058;-70
2022/07/28 11:10:41;;;;;;;2.42;1.17;;;;;;;20.77;46.32;101707.00;5053543;28;20368;-70
2022/07/28 11:13:06;;;;;;;1.23;1.10;;;;;;;20.89;45.95;101704.25;5068021;28;20983;-70
2022/07/28 11:15:34;;;;;;;2.28;1.58;;;;;;;20.96;46.56;101707.63;5067322;28;20032;-68
2022/07/28 11:18:02;;;;;;;7.13;1.10;;;;;;;20.99;45.74;101703.59;5067536;28;20024;-71
2022/07/28 11:20:51;;;;;;;4.47;1.23;;;;;;;21.06;47.08;101700.72;5067154;28;20024;-71
2022/07/28 11:23:45;;;;;;;2.58;1.30;;;;;;;21.17;46.48;101703.38;5066779;28;20048;-71
2022/07/28 11:26:20;;;;;;;4.13;1.50;;;;;;;21.24;45.45;101698.56;5067048;28;20065;-68
2022/07/28 11:29:07;;;;;;;1.77;1.42;;;;;;;21.26;45.56;101701.06;5066982;28;20049;-68